Campanya meteocatpedra

Dades EMA Sant Martí de Riucorb

?
?
Resum diari 22:30 TU
Dades diàries de l'estació meteorològica
Temperatura mitjana 23.3 °C
Temperatura màxima 30.8 °C 14:06 TU
Temperatura mínima 14.8 °C 4:39 TU
Humitat relativa mitjana 43%
Precipitació acumulada 0.0 mm
Ratxa màxima del vent (2 m) 27.7 km/h - 208º 13:31 TU
Irradiació solar global 29.9 MJ/m2

El tram horari està expressat en Temps Universal (TU). Cal sumar una hora en horari d'hivern i dues en horari d'estiu per passar a l'hora oficial.

Sant Martí de Riucorb

Metadades estació meteorol´gica
Municipi Sant Martí de Riucorb
Comarca Urgell
Altitud 413 m
Data alta 05.02.2002
Estat actual Operativa
Dades de període
Període
TU
TM
°C
TX
°C
TN
°C
HRM
%
PPT
mm
VVM (2 m)
km/h
DVM (2 m)
graus
VVX (2 m)
km/h
RS
W/m2
00:00 - 00:30 17.1 17.8 16.4 58 0.0 1.8 136 5.4 0
00:30 - 01:00 17.3 17.9 16.7 58 0.0 2.2 134 5.0 0
01:00 - 01:30 17.2 17.4 16.9 59 0.0 3.2 140 6.1 0
01:30 - 02:00 17.1 17.3 17.0 60 0.0 2.9 134 5.8 0
02:00 - 02:30 16.9 17.1 16.7 60 0.0 4.3 139 7.9 0
02:30 - 03:00 16.4 16.7 16.2 62 0.0 4.3 142 7.6 0
03:00 - 03:30 15.9 16.2 15.5 64 0.0 4.7 143 7.9 0
03:30 - 04:00 15.2 15.5 14.9 66 0.0 3.6 173 7.6 0
04:00 - 04:30 15.2 15.2 15.1 66 0.0 4.3 144 8.3 1
04:30 - 05:00 15.0 15.6 14.8 67 0.0 2.9 132 7.2 21
05:00 - 05:30 16.3 17.1 15.6 62 0.0 3.6 129 8.3 83
05:30 - 06:00 17.7 18.8 17.1 58 0.0 3.2 131 6.8 162
06:00 - 06:30 20.0 21.3 18.8 52 0.0 2.9 92 6.8 253
06:30 - 07:00 22.3 22.8 21.4 43 0.0 2.5 74 6.8 352
07:00 - 07:30 23.2 23.5 22.8 40 0.0 3.6 41 9.4 449
07:30 - 08:00 24.0 24.9 23.4 38 0.0 4.0 28 9.7 544
08:00 - 08:30 25.1 25.9 24.5 36 0.0 2.9 38 6.8 631
08:30 - 09:00 25.7 26.4 25.1 35 0.0 3.2 291 9.0 711
09:00 - 09:30 26.5 26.9 25.9 33 0.0 4.0 291 14.0 781
09:30 - 10:00 27.3 27.8 26.7 32 0.0 3.6 307 10.1 840
10:00 - 10:30 27.7 28.1 27.3 32 0.0 5.8 353 17.3 885
10:30 - 11:00 28.1 28.8 27.5 32 0.0 5.4 310 13.3 920
11:00 - 11:30 28.0 28.8 27.4 32 0.0 4.7 300 12.6 945
11:30 - 12:00 28.5 29.0 27.9 32 0.0 6.1 285 14.4 957
12:00 - 12:30 28.9 29.2 28.6 32 0.0 7.2 338 20.9 954
12:30 - 13:00 29.3 29.9 28.9 31 0.0 6.8 309 15.8 941
13:00 - 13:30 29.8 30.2 29.3 30 0.0 6.8 317 15.5 921
13:30 - 14:00 30.1 30.7 29.8 30 0.0 6.8 286 27.7 896
14:00 - 14:30 30.4 30.8 29.7 29 0.0 6.1 266 22.7 856
14:30 - 15:00 30.1 30.7 29.6 30 0.0 4.0 312 14.4 634
15:00 - 15:30 30.0 30.5 29.4 28 0.0 8.3 134 24.1 713
15:30 - 16:00 29.5 29.9 29.1 29 0.0 9.4 156 19.8 577
16:00 - 16:30 28.4 29.3 27.5 31 0.0 10.8 151 22.0 499
16:30 - 17:00 27.3 27.6 27.1 33 0.0 11.2 150 24.1 403
17:00 - 17:30 27.2 27.6 26.6 32 0.0 9.4 165 21.2 301
17:30 - 18:00 26.3 26.6 25.9 32 0.0 9.4 162 19.1 216
18:00 - 18:30 25.5 25.9 25.0 33 0.0 9.4 160 20.5 124
18:30 - 19:00 24.4 24.9 23.7 36 0.0 8.6 156 19.4 47
19:00 - 19:30 23.2 23.7 22.7 40 0.0 8.6 155 20.2 7
19:30 - 20:00 22.4 22.6 22.1 42 0.0 7.9 153 16.2 0
20:00 - 20:30 22.0 22.2 22.0 43 0.0 8.6 147 19.1 0
20:30 - 21:00 21.8 21.9 21.7 44 0.0 7.9 147 15.5 0
21:00 - 21:30 21.5 21.8 21.3 45 0.0 6.5 138 13.7 0
21:30 - 22:00 20.6 21.2 20.1 47 0.0 4.0 1 10.8 0
22:00 - 22:30 19.4 20.0 18.8 50 0.0 2.2 116 5.4 0
22:30 - 23:00 18.8 19.1 18.0 52 0.0 3.2 156 5.8 0

Les dades en taronja només han passat un control de qualitat automàtic. Resta pendent la seva validació definitiva.